Portada
METAR-TAF:

METAR-TAF

Aeroports :

Leh, Índia

latitud: 34-08-09N, longitud: 077-32-47E, altitud: 3256 m

METAR: manca

Hora: 05:07 (23:37 UTC)

Pronòstic

L'informe es va fer fa 14 hores i 7 minuts, a les 09:30 UTC
Pronòstic vàlid del 03 a les 18 UTC al 04 a les 12 UTC
Vent 2 kt amb direcció variable
Visibilitat: 6000 m
Escasses núvols a una alçada de 6000 ft
Núvols disperses a una alçada de 7000 ft
Evolucionant progressivament
l' 04 a les 07 UTC al 04 a les XX UTC
Vent 10 kt del Oest
Temporalment
l' 04 a les 09 UTC al 04 a les 12 UTC
Vent 15 kt del Oest amb ràfegues de 25 kt

TAF: VILH 030930Z 0318/0412 VRB02KT 6000 FEW060 SCT070 BECMG 0407/04XX 28010KT TEMPO 0409/0412 28015G25KT

Observacions i pronòstics meteorològics de més de 4000 aeroports (METAR i TAF).

Les estacions disponibles són els punts grocs i vermells al mapa.

Posi el ratolí al punt desitjat per veure el nom de l'estació.

Feu clic per veure les observacions i els pronòstics meteorològics.

Per canviar el mapa: feu clic els botons verds amb una creu de color negre per apropar; al botó verd amb un guió per allunyar la imatge; o en les fletxes verdes per a mapes adjacents.


METAR-TAF: